createdAt,value
2019-05-29T00:00:24.222Z,15.72
2019-05-29T00:01:24.147Z,15.68
2019-05-29T00:02:24.197Z,15.81
2019-05-29T00:03:24.151Z,15.79
2019-05-29T00:04:24.159Z,15.79
2019-05-29T00:05:24.158Z,15.74
2019-05-29T00:06:24.185Z,15.72
2019-05-29T00:07:32.957Z,15.79
2019-05-29T00:09:26.689Z,15.70
2019-05-29T00:10:26.321Z,15.82
2019-05-29T00:12:22.086Z,15.84
2019-05-29T00:13:22.161Z,15.79
2019-05-29T00:14:27.152Z,15.64
2019-05-29T00:15:22.135Z,15.67
2019-05-29T00:16:22.241Z,15.57
2019-05-29T00:17:22.071Z,15.63
2019-05-29T00:18:22.049Z,15.45
2019-05-29T00:19:22.083Z,15.49
2019-05-29T00:20:22.040Z,15.54
2019-05-29T00:21:22.034Z,15.54
2019-05-29T00:22:22.026Z,15.68
2019-05-29T00:23:22.055Z,15.46
2019-05-29T00:24:23.208Z,15.38
2019-05-29T00:25:22.043Z,15.63
2019-05-29T00:26:22.057Z,15.49
2019-05-29T00:27:22.054Z,15.45
2019-05-29T00:28:22.021Z,15.49
2019-05-29T00:29:22.062Z,15.46
2019-05-29T00:30:22.051Z,15.48
2019-05-29T00:31:22.057Z,15.48
2019-05-29T00:32:22.013Z,15.57
2019-05-29T00:33:22.033Z,15.57
2019-05-29T00:34:22.045Z,15.64
2019-05-29T00:35:22.016Z,15.49
2019-05-29T00:36:22.053Z,15.33
2019-05-29T00:37:22.027Z,15.39
2019-05-29T00:38:22.030Z,15.33
2019-05-29T00:39:22.010Z,15.54
2019-05-29T00:40:22.028Z,15.68
2019-05-29T00:41:22.073Z,15.72
2019-05-29T00:42:22.027Z,15.63
2019-05-29T00:43:21.992Z,15.48
2019-05-29T00:44:34.014Z,15.51
2019-05-29T00:45:21.999Z,15.35
2019-05-29T00:46:22.006Z,15.63
2019-05-29T00:47:22.012Z,15.38
2019-05-29T00:48:22.007Z,15.43
2019-05-29T00:49:22.035Z,15.42
2019-05-29T00:50:22.018Z,15.43
2019-05-29T00:51:21.980Z,15.41
2019-05-29T00:52:21.971Z,15.33
2019-05-29T00:53:22.011Z,15.39
2019-05-29T00:54:21.996Z,15.33
2019-05-29T00:55:22.075Z,15.30
2019-05-29T00:56:21.998Z,15.38
2019-05-29T00:57:21.961Z,15.35
2019-05-29T00:58:30.761Z,15.35
2019-05-29T01:00:26.628Z,15.35
2019-05-29T01:01:26.549Z,15.33
2019-05-29T01:02:26.589Z,15.38
2019-05-29T01:03:26.538Z,15.35
2019-05-29T01:04:26.702Z,15.24
2019-05-29T01:05:26.535Z,15.24
2019-05-29T01:06:26.558Z,15.06
2019-05-29T01:07:26.533Z,15.12
2019-05-29T01:08:26.534Z,15.11
2019-05-29T01:09:26.543Z,15.24
2019-05-29T01:10:26.504Z,15.27
2019-05-29T01:11:26.503Z,15.23
2019-05-29T01:12:26.564Z,15.30
2019-05-29T01:13:26.623Z,15.27
2019-05-29T01:14:26.567Z,15.28
2019-05-29T01:15:26.538Z,15.24
2019-05-29T01:16:26.536Z,15.26
2019-05-29T01:17:26.517Z,15.24
2019-05-29T01:18:26.568Z,15.30
2019-05-29T01:19:26.530Z,15.41
2019-05-29T01:20:26.508Z,15.28
2019-05-29T01:21:26.516Z,15.19
2019-05-29T01:22:26.520Z,15.19
2019-05-29T01:23:26.540Z,15.20
2019-05-29T01:24:26.562Z,15.33
2019-05-29T01:25:26.528Z,15.28
2019-05-29T01:26:26.529Z,15.27
2019-05-29T01:27:26.487Z,15.20
2019-05-29T01:28:26.563Z,15.28
2019-05-29T01:29:26.504Z,15.19
2019-05-29T01:30:26.639Z,15.03
2019-05-29T01:31:26.539Z,15.17
2019-05-29T01:32:26.580Z,15.17
2019-05-29T01:33:36.256Z,15.27
2019-05-29T01:35:28.992Z,15.20
2019-05-29T01:36:20.519Z,15.26
2019-05-29T01:37:20.400Z,15.20
2019-05-29T01:38:21.442Z,15.06
2019-05-29T01:39:28.907Z,15.11
2019-05-29T01:41:25.036Z,15.23
2019-05-29T01:42:24.739Z,15.17
2019-05-29T01:44:29.432Z,15.24
2019-05-29T01:45:29.279Z,15.08
2019-05-29T01:47:34.803Z,15.38
2019-05-29T01:48:34.898Z,15.59
2019-05-29T01:49:34.718Z,15.45
2019-05-29T01:50:34.711Z,15.24
2019-05-29T01:51:34.661Z,15.17
2019-05-29T01:52:34.661Z,15.06
2019-05-29T01:53:34.682Z,15.08
2019-05-29T01:54:34.638Z,15.03
2019-05-29T01:55:34.633Z,15.17
2019-05-29T01:56:34.652Z,15.09
2019-05-29T01:57:34.656Z,15.05
2019-05-29T01:58:34.666Z,15.02
2019-05-29T01:59:34.642Z,15.06
2019-05-29T02:00:34.669Z,15.09
2019-05-29T02:01:43.384Z,15.11
2019-05-29T02:03:39.304Z,15.08
2019-05-29T02:04:47.814Z,15.43
2019-05-29T02:06:52.724Z,15.09
2019-05-29T02:07:43.686Z,15.03
2019-05-29T02:08:43.656Z,15.01
2019-05-29T02:09:43.646Z,15.01
2019-05-29T02:10:43.640Z,14.93
2019-05-29T02:11:43.627Z,14.94
2019-05-29T02:12:43.640Z,15.06
2019-05-29T02:13:43.603Z,14.95
2019-05-29T02:14:43.616Z,15.06
2019-05-29T02:15:43.592Z,14.88
2019-05-29T02:16:43.608Z,14.91
2019-05-29T02:17:43.597Z,14.93
2019-05-29T02:18:43.599Z,15.03
2019-05-29T02:19:43.593Z,15.05
2019-05-29T02:20:43.611Z,15.01
2019-05-29T02:21:43.598Z,15.01
2019-05-29T02:22:43.582Z,14.99
2019-05-29T02:23:43.615Z,14.94
2019-05-29T02:24:43.562Z,14.84
2019-05-29T02:25:43.579Z,14.86
2019-05-29T02:26:43.552Z,14.91
2019-05-29T02:27:43.585Z,14.93
2019-05-29T02:28:43.558Z,14.78
2019-05-29T02:29:43.586Z,14.75
2019-05-29T02:30:43.573Z,14.80
2019-05-29T02:31:43.585Z,14.83
2019-05-29T02:32:43.588Z,14.81
2019-05-29T02:33:43.578Z,14.81
2019-05-29T02:34:43.536Z,14.93
2019-05-29T02:35:43.546Z,14.88
2019-05-29T02:36:52.385Z,14.95
2019-05-29T02:38:57.233Z,14.87
2019-05-29T02:39:56.901Z,14.84
2019-05-29T02:41:52.624Z,14.93
2019-05-29T02:42:52.578Z,14.93
2019-05-29T02:44:57.187Z,15.02
2019-05-29T02:45:57.115Z,15.01
2019-05-29T02:46:57.063Z,14.93
2019-05-29T02:47:57.253Z,14.86
2019-05-29T02:48:57.032Z,14.86
2019-05-29T02:49:57.011Z,15.01
2019-05-29T02:50:57.004Z,15.06
2019-05-29T02:51:57.038Z,15.03
2019-05-29T02:52:57.018Z,14.93
2019-05-29T02:53:57.008Z,14.90
2019-05-29T02:54:57.033Z,14.81
2019-05-29T02:55:56.999Z,14.95
2019-05-29T02:56:57.025Z,14.72
2019-05-29T02:57:57.015Z,15.08
2019-05-29T02:58:57.000Z,14.95
2019-05-29T02:59:57.024Z,15.02
2019-05-29T03:00:56.987Z,14.88
2019-05-29T03:01:57.031Z,15.05
2019-05-29T03:02:56.987Z,14.80
2019-05-29T03:03:56.985Z,14.87
2019-05-29T03:04:56.977Z,14.83
2019-05-29T03:05:56.996Z,14.87
2019-05-29T03:06:57.046Z,14.99
2019-05-29T03:07:56.978Z,14.94
2019-05-29T03:08:56.993Z,14.90
2019-05-29T03:09:57.006Z,14.84
2019-05-29T03:10:56.972Z,14.84
2019-05-29T03:12:00.095Z,14.81
2019-05-29T03:12:57.031Z,15.13
2019-05-29T03:13:56.977Z,14.94
2019-05-29T03:14:56.954Z,14.95
2019-05-29T03:16:09.615Z,15.03
2019-05-29T03:16:56.966Z,15.08
2019-05-29T03:17:56.976Z,15.06
2019-05-29T03:18:56.947Z,14.99
2019-05-29T03:19:56.965Z,14.95
2019-05-29T03:20:56.953Z,14.88
2019-05-29T03:21:56.932Z,14.84
2019-05-29T03:22:56.933Z,14.81
2019-05-29T03:23:56.980Z,14.75
2019-05-29T03:24:56.979Z,14.72
2019-05-29T03:25:56.927Z,14.68
2019-05-29T03:26:56.950Z,14.61
2019-05-29T03:27:56.927Z,14.60
2019-05-29T03:29:05.843Z,14.61
2019-05-29T03:31:02.519Z,14.80
2019-05-29T03:32:02.533Z,14.67
2019-05-29T03:33:02.491Z,14.56
2019-05-29T03:34:02.661Z,14.49
2019-05-29T03:35:02.420Z,14.71
2019-05-29T03:36:02.470Z,14.56
2019-05-29T03:37:02.431Z,14.54
2019-05-29T03:38:02.433Z,14.49
2019-05-29T03:39:02.400Z,14.60
2019-05-29T03:40:02.415Z,14.52
2019-05-29T03:41:02.417Z,14.74
2019-05-29T03:42:02.405Z,14.62
2019-05-29T03:43:02.401Z,14.52
2019-05-29T03:44:02.428Z,14.61
2019-05-29T03:45:02.384Z,14.72
2019-05-29T03:46:02.408Z,14.49
2019-05-29T03:47:02.409Z,14.74
2019-05-29T03:48:02.381Z,14.83
2019-05-29T03:49:02.389Z,14.71
2019-05-29T03:50:02.411Z,14.64
2019-05-29T03:51:02.406Z,14.67
2019-05-29T03:52:02.397Z,14.65
2019-05-29T03:53:02.384Z,14.78
2019-05-29T03:54:02.377Z,14.74
2019-05-29T03:55:02.428Z,14.81
2019-05-29T03:56:02.386Z,14.67
2019-05-29T03:57:10.247Z,14.56
2019-05-29T03:58:02.442Z,14.49
2019-05-29T03:59:02.431Z,14.57
2019-05-29T04:00:02.358Z,14.71
2019-05-29T04:01:02.370Z,14.94
2019-05-29T04:03:44.901Z,14.94
2019-05-29T04:04:43.674Z,14.72
2019-05-29T04:06:29.085Z,14.84
2019-05-29T04:07:29.253Z,14.60
2019-05-29T04:08:29.454Z,14.37
2019-05-29T04:09:29.226Z,14.42
2019-05-29T04:24:10.595Z,14.54
2019-05-29T04:25:10.486Z,14.35
2019-05-29T04:26:10.496Z,14.37
2019-05-29T04:27:10.767Z,14.47
2019-05-29T04:28:10.452Z,14.44
2019-05-29T04:29:10.457Z,14.49
2019-05-29T04:30:10.460Z,14.53
2019-05-29T04:31:10.415Z,14.43
2019-05-29T04:32:10.404Z,14.57
2019-05-29T04:33:10.421Z,14.83
2019-05-29T04:34:10.402Z,14.44
2019-05-29T04:35:10.420Z,14.42
2019-05-29T04:36:10.409Z,14.47
2019-05-29T04:37:10.388Z,14.35
2019-05-29T04:38:10.398Z,14.47
2019-05-29T04:39:10.385Z,14.46
2019-05-29T04:40:10.410Z,14.46
2019-05-29T04:41:10.376Z,14.34
2019-05-29T04:42:10.421Z,14.31
2019-05-29T04:43:10.397Z,14.37
2019-05-29T04:44:10.380Z,14.49
2019-05-29T04:45:10.362Z,14.42
2019-05-29T04:46:10.368Z,14.39
2019-05-29T04:47:12.247Z,14.35
2019-05-29T04:48:10.408Z,14.46
2019-05-29T04:49:10.387Z,14.37
2019-05-29T04:50:10.374Z,14.43
2019-05-29T04:51:10.385Z,14.68
2019-05-29T04:52:10.362Z,14.54
2019-05-29T04:53:10.328Z,14.65
2019-05-29T04:54:10.354Z,14.71
2019-05-29T04:55:10.330Z,14.64
2019-05-29T04:56:10.324Z,14.57
2019-05-29T04:57:10.354Z,14.60
2019-05-29T04:58:10.378Z,14.65
2019-05-29T04:59:10.328Z,14.84
2019-05-29T05:00:10.409Z,14.57
2019-05-29T05:01:10.357Z,14.50
2019-05-29T05:02:10.375Z,14.57
2019-05-29T05:03:10.326Z,14.52
2019-05-29T05:04:10.303Z,14.64
2019-05-29T05:05:19.774Z,14.54
2019-05-29T05:07:35.384Z,14.49
2019-05-29T05:08:35.424Z,14.44
2019-05-29T05:10:31.406Z,14.53
2019-05-29T05:11:39.651Z,14.62
2019-05-29T05:13:37.609Z,14.49
2019-05-29T05:14:36.279Z,14.47
2019-05-29T05:15:36.287Z,14.54
2019-05-29T05:16:36.421Z,14.43
2019-05-29T05:17:36.246Z,14.61
2019-05-29T05:18:36.238Z,14.64
2019-05-29T05:19:36.204Z,14.62
2019-05-29T05:20:36.415Z,14.53
2019-05-29T05:21:36.206Z,14.46
2019-05-29T05:22:36.417Z,14.65
2019-05-29T05:23:36.221Z,14.54
2019-05-29T05:24:36.426Z,14.56
2019-05-29T05:25:36.468Z,14.57
2019-05-29T05:26:36.333Z,14.52
2019-05-29T05:27:36.544Z,14.54
2019-05-29T05:28:36.491Z,14.52
2019-05-29T05:29:36.335Z,14.56
2019-05-29T05:30:36.496Z,14.80
2019-05-29T05:31:36.530Z,14.81
2019-05-29T05:32:36.844Z,14.67
2019-05-29T05:33:36.735Z,14.65
2019-05-29T05:34:36.869Z,14.75
2019-05-29T05:35:36.823Z,14.57
2019-05-29T05:36:36.771Z,14.50
2019-05-29T05:37:36.967Z,14.43
2019-05-29T05:38:36.803Z,14.38
2019-05-29T05:39:37.308Z,14.44
2019-05-29T05:40:39.456Z,14.50
2019-05-29T05:41:36.866Z,14.64
2019-05-29T05:42:37.136Z,14.65
2019-05-29T05:43:36.933Z,14.71
2019-05-29T05:44:37.027Z,14.49
2019-05-29T05:45:37.067Z,14.62
2019-05-29T05:46:37.154Z,14.56
2019-05-29T05:47:50.370Z,14.49
2019-05-29T05:48:37.098Z,14.64
2019-05-29T05:49:37.294Z,14.65
2019-05-29T05:50:37.073Z,14.62
2019-05-29T05:51:39.931Z,14.53
2019-05-29T05:52:37.398Z,14.56
2019-05-29T05:53:37.442Z,14.65
2019-05-29T05:54:37.458Z,14.75
2019-05-29T05:55:36.129Z,14.64
2019-05-29T05:56:36.176Z,14.64
2019-05-29T05:57:43.969Z,14.65
2019-05-29T05:59:42.056Z,14.61
2019-05-29T06:00:42.093Z,14.44
2019-05-29T06:01:42.122Z,14.54
2019-05-29T06:02:42.168Z,14.61
2019-05-29T06:03:42.409Z,14.64
2019-05-29T06:04:42.126Z,14.62
2019-05-29T06:05:42.304Z,14.67
2019-05-29T06:06:42.367Z,14.61
2019-05-29T06:07:42.471Z,14.72
2019-05-29T06:08:42.544Z,14.87
2019-05-29T06:09:42.523Z,14.83
2019-05-29T06:10:42.394Z,14.65
2019-05-29T06:11:42.551Z,14.54
2019-05-29T06:12:42.880Z,14.43
2019-05-29T06:13:42.777Z,14.65
2019-05-29T06:14:42.648Z,14.72
2019-05-29T06:15:42.821Z,14.62
2019-05-29T06:16:42.672Z,14.49
2019-05-29T06:17:46.814Z,14.52
2019-05-29T06:18:42.791Z,14.53
2019-05-29T06:19:43.020Z,14.43
2019-05-29T06:20:43.088Z,14.60
2019-05-29T06:21:41.595Z,14.52
2019-05-29T06:22:41.579Z,14.75
2019-05-29T06:23:41.678Z,14.68
2019-05-29T06:24:41.601Z,14.84
2019-05-29T06:25:42.481Z,14.74
2019-05-29T06:26:50.521Z,14.60
2019-05-29T06:28:55.184Z,14.47
2019-05-29T06:29:54.857Z,14.60
2019-05-29T06:31:50.625Z,14.71
2019-05-29T06:32:50.528Z,14.64
2019-05-29T06:33:50.538Z,14.61
2019-05-29T06:34:50.529Z,14.71
2019-05-29T06:35:50.525Z,14.80
2019-05-29T06:36:50.532Z,14.75
2019-05-29T06:37:50.514Z,14.74
2019-05-29T06:38:50.539Z,14.74
2019-05-29T06:39:50.500Z,14.72
2019-05-29T06:40:50.513Z,14.65
2019-05-29T06:41:50.520Z,14.80
2019-05-29T06:42:50.702Z,14.91
2019-05-29T06:43:50.490Z,14.80
2019-05-29T06:44:50.490Z,14.78
2019-05-29T06:45:50.507Z,14.75
2019-05-29T06:46:50.493Z,14.84
2019-05-29T06:47:50.498Z,14.62
2019-05-29T06:48:59.818Z,14.86
2019-05-29T06:49:50.515Z,14.78
2019-05-29T06:50:50.485Z,14.93
2019-05-29T06:51:50.512Z,14.87
2019-05-29T06:52:50.468Z,14.81
2019-05-29T06:53:50.473Z,15.05
2019-05-29T06:54:50.516Z,15.08
2019-05-29T06:55:54.209Z,15.06
2019-05-29T06:56:50.593Z,15.01
2019-05-29T06:57:50.500Z,14.91
2019-05-29T06:58:50.543Z,15.20
2019-05-29T06:59:50.518Z,15.27
2019-05-29T07:00:50.532Z,15.17
2019-05-29T07:01:50.500Z,15.23
2019-05-29T07:02:50.459Z,15.24
2019-05-29T07:03:50.470Z,15.41
2019-05-29T07:04:50.451Z,15.39
2019-05-29T07:05:52.516Z,15.36
2019-05-29T07:06:50.464Z,15.30
2019-05-29T07:07:50.466Z,15.23
2019-05-29T07:08:50.517Z,15.45
2019-05-29T07:09:50.535Z,15.39
2019-05-29T07:10:50.469Z,15.27
2019-05-29T07:11:50.447Z,15.45
2019-05-29T07:12:50.431Z,15.33
2019-05-29T07:13:50.914Z,15.39
2019-05-29T07:14:50.429Z,15.48
2019-05-29T07:15:50.490Z,15.52
2019-05-29T07:16:55.957Z,15.38
2019-05-29T07:17:50.447Z,15.42
2019-05-29T07:20:00.740Z,15.30
2019-05-29T07:20:50.453Z,15.45
2019-05-29T07:21:50.425Z,15.45
2019-05-29T07:22:50.492Z,15.35
2019-05-29T07:23:50.450Z,15.39
2019-05-29T07:24:50.450Z,15.28
2019-05-29T07:25:50.476Z,15.27
2019-05-29T07:26:50.410Z,15.39
2019-05-29T07:27:50.473Z,15.35
2019-05-29T07:29:07.483Z,15.28
2019-05-29T07:29:50.432Z,15.30
2019-05-29T07:31:00.314Z,15.28
2019-05-29T07:31:50.462Z,15.35
2019-05-29T07:32:57.720Z,15.46
2019-05-29T07:33:59.236Z,15.48
2019-05-29T07:35:45.691Z,15.66
2019-05-29T07:36:45.973Z,15.59
2019-05-29T07:37:45.928Z,15.52
2019-05-29T07:38:55.806Z,15.59
2019-05-29T07:39:53.776Z,15.66
2019-05-29T07:41:39.555Z,15.57
2019-05-29T07:42:41.523Z,15.61
2019-05-29T07:43:39.670Z,15.72
2019-05-29T07:44:39.904Z,15.66
2019-05-29T07:45:40.444Z,15.74
2019-05-29T07:46:39.923Z,15.67
2019-05-29T07:47:40.234Z,15.66
2019-05-29T07:48:40.250Z,15.79
2019-05-29T07:49:41.826Z,15.79
2019-05-29T07:50:39.953Z,15.66
2019-05-29T07:51:38.732Z,15.74
2019-05-29T07:52:38.826Z,15.63
2019-05-29T07:53:38.672Z,15.85
2019-05-29T07:54:40.005Z,15.70
2019-05-29T07:55:38.639Z,15.92
2019-05-29T07:56:38.690Z,15.89
2019-05-29T07:57:38.847Z,15.94
2019-05-29T07:58:38.755Z,15.93
2019-05-29T07:59:38.647Z,15.92
2019-05-29T08:01:03.738Z,15.93
2019-05-29T08:01:38.742Z,15.93
2019-05-29T08:02:39.339Z,15.85
2019-05-29T08:03:39.277Z,15.93
2019-05-29T08:04:38.941Z,15.93
2019-05-29T08:05:39.202Z,15.92
2019-05-29T08:06:38.949Z,15.89
2019-05-29T08:07:39.407Z,15.89
2019-05-29T08:08:39.169Z,15.97
2019-05-29T08:09:39.316Z,15.89
2019-05-29T08:10:39.962Z,16.03
2019-05-29T08:11:39.501Z,16.01
2019-05-29T08:12:43.918Z,15.94
2019-05-29T08:13:39.482Z,15.92
2019-05-29T08:14:39.657Z,15.84
2019-05-29T08:15:55.019Z,15.89
2019-05-29T08:16:39.676Z,15.94
2019-05-29T08:17:39.912Z,15.92
2019-05-29T08:18:41.104Z,16.06
2019-05-29T08:19:53.532Z,16.01
2019-05-29T08:20:39.746Z,15.97
2019-05-29T08:21:40.809Z,16.09
2019-05-29T08:22:39.927Z,16.25
2019-05-29T08:23:38.740Z,16.27
2019-05-29T08:24:38.621Z,16.26
2019-05-29T08:25:38.730Z,16.22
2019-05-29T08:26:38.637Z,16.26
2019-05-29T08:27:48.761Z,16.23
2019-05-29T08:29:32.354Z,16.23
2019-05-29T08:30:32.280Z,16.26
2019-05-29T08:31:42.700Z,16.33
2019-05-29T08:33:36.838Z,16.33
2019-05-29T08:34:45.526Z,16.26
2019-05-29T08:37:04.881Z,16.41
2019-05-29T08:37:42.764Z,16.48
2019-05-29T08:38:43.839Z,16.48
2019-05-29T08:39:41.534Z,16.42
2019-05-29T08:40:41.483Z,16.52
2019-05-29T08:41:47.844Z,16.45
2019-05-29T08:42:41.252Z,16.45
2019-05-29T08:43:42.527Z,16.49
2019-05-29T08:44:41.363Z,16.35
2019-05-29T08:45:41.592Z,16.35
2019-05-29T08:46:41.713Z,16.27
2019-05-29T08:47:41.502Z,16.31
2019-05-29T08:48:41.776Z,16.37
2019-05-29T08:49:41.743Z,16.50
2019-05-29T08:50:41.554Z,16.50
2019-05-29T08:51:41.819Z,16.55
2019-05-29T08:52:41.772Z,16.65
2019-05-29T08:53:42.559Z,16.58
2019-05-29T08:54:42.043Z,16.62
2019-05-29T08:55:42.055Z,16.50
2019-05-29T08:56:42.260Z,16.59
2019-05-29T08:57:42.537Z,16.45
2019-05-29T08:58:42.791Z,16.53
2019-05-29T08:59:42.133Z,16.45
2019-05-29T09:00:45.596Z,16.40
2019-05-29T09:01:42.602Z,16.42
2019-05-29T09:02:42.432Z,16.44
2019-05-29T09:03:42.678Z,16.53
2019-05-29T09:04:43.015Z,16.49
2019-05-29T09:05:42.424Z,16.49
2019-05-29T09:06:42.907Z,16.52
2019-05-29T09:07:43.017Z,16.52
2019-05-29T09:08:41.314Z,16.56
2019-05-29T09:09:41.372Z,16.58
2019-05-29T09:10:41.305Z,16.70
2019-05-29T09:11:41.345Z,16.65
2019-05-29T09:12:41.345Z,16.58
2019-05-29T09:13:41.422Z,16.58
2019-05-29T09:14:41.336Z,16.73
2019-05-29T09:15:41.309Z,16.70
2019-05-29T09:16:41.338Z,16.80
2019-05-29T09:17:41.354Z,16.68
2019-05-29T09:18:41.286Z,16.70
2019-05-29T09:19:41.342Z,16.58
2019-05-29T09:21:01.061Z,16.73
2019-05-29T09:21:41.284Z,16.73
2019-05-29T09:22:41.289Z,16.86
2019-05-29T09:23:41.322Z,16.89
2019-05-29T09:24:41.304Z,16.89
2019-05-29T09:25:41.369Z,16.90
2019-05-29T09:26:41.291Z,16.96
2019-05-29T09:27:41.300Z,16.83
2019-05-29T09:28:41.478Z,16.86
2019-05-29T09:29:41.264Z,16.75
2019-05-29T09:30:41.278Z,16.68
2019-05-29T09:31:41.360Z,16.81
2019-05-29T09:32:50.253Z,16.90
2019-05-29T09:33:41.342Z,16.85
2019-05-29T09:34:41.285Z,16.60
2019-05-29T09:35:41.363Z,16.58
2019-05-29T09:36:41.300Z,16.68
2019-05-29T09:37:41.290Z,16.59
2019-05-29T09:38:41.330Z,16.55
2019-05-29T09:39:41.319Z,16.50
2019-05-29T09:40:41.291Z,16.56
2019-05-29T09:41:41.301Z,16.50
2019-05-29T09:42:41.313Z,16.58
2019-05-29T09:43:57.721Z,16.60
2019-05-29T09:44:41.342Z,16.63
2019-05-29T09:45:41.341Z,16.73
2019-05-29T09:46:41.346Z,16.78
2019-05-29T09:47:41.323Z,16.89
2019-05-29T09:48:49.743Z,16.85
2019-05-29T09:49:41.309Z,16.90
2019-05-29T09:50:50.042Z,16.83
2019-05-29T09:51:41.288Z,16.85
2019-05-29T09:52:41.322Z,16.88
2019-05-29T09:53:41.353Z,16.75
2019-05-29T09:54:41.397Z,16.90
2019-05-29T09:55:41.407Z,16.96
2019-05-29T09:56:41.316Z,16.98
2019-05-29T09:57:41.352Z,16.90
2019-05-29T09:58:41.311Z,16.89
2019-05-29T09:59:41.281Z,16.90
2019-05-29T10:00:41.345Z,16.83
2019-05-29T10:01:41.377Z,16.93
2019-05-29T10:04:31.368Z,16.90
2019-05-29T10:05:29.281Z,16.88
2019-05-29T10:07:26.182Z,16.86
2019-05-29T10:08:26.218Z,16.88
2019-05-29T10:10:40.727Z,16.81
2019-05-29T10:11:30.807Z,16.88
2019-05-29T10:12:30.722Z,16.92
2019-05-29T10:13:30.729Z,16.88
2019-05-29T10:14:30.647Z,16.86
2019-05-29T10:15:30.679Z,16.85
2019-05-29T10:16:30.648Z,16.86
2019-05-29T10:17:30.730Z,16.88
2019-05-29T10:18:32.697Z,16.96
2019-05-29T10:19:30.567Z,16.89
2019-05-29T10:20:30.570Z,16.88
2019-05-29T10:21:40.020Z,17.04
2019-05-29T10:22:30.533Z,17.03
2019-05-29T10:23:30.672Z,17.06
2019-05-29T10:24:32.486Z,17.08
2019-05-29T10:25:30.558Z,17.13
2019-05-29T10:29:08.366Z,17.18
2019-05-29T10:30:01.114Z,17.20
2019-05-29T10:32:06.576Z,17.03
2019-05-29T10:33:06.565Z,16.96
2019-05-29T10:34:06.586Z,17.06
2019-05-29T10:35:06.671Z,17.08
2019-05-29T10:36:06.696Z,17.07
2019-05-29T10:37:06.582Z,17.22
2019-05-29T10:38:06.657Z,17.17
2019-05-29T10:39:06.703Z,17.25
2019-05-29T10:40:06.625Z,17.36
2019-05-29T10:41:07.439Z,17.18
2019-05-29T10:42:06.641Z,17.33
2019-05-29T10:43:06.600Z,17.33
2019-05-29T10:44:06.658Z,17.29
2019-05-29T10:45:06.612Z,17.38
2019-05-29T10:46:06.578Z,17.50
2019-05-29T10:47:06.693Z,17.57
2019-05-29T10:48:06.617Z,17.51
2019-05-29T10:49:06.612Z,17.53
2019-05-29T10:50:06.704Z,17.36
2019-05-29T10:51:06.617Z,17.38
2019-05-29T10:52:15.740Z,17.33
2019-05-29T10:53:06.681Z,17.35
2019-05-29T10:54:06.699Z,17.26
2019-05-29T10:55:06.635Z,17.32
2019-05-29T10:56:06.625Z,17.22
2019-05-29T10:58:48.458Z,17.30
2019-05-29T10:59:38.783Z,17.29
2019-05-29T11:00:39.838Z,17.32
2019-05-29T11:01:38.867Z,17.28
2019-05-29T11:02:38.777Z,17.15
2019-05-29T11:03:38.770Z,17.15
2019-05-29T11:04:38.825Z,17.18
2019-05-29T11:05:38.778Z,17.25
2019-05-29T11:06:40.869Z,17.18
2019-05-29T11:07:38.831Z,17.22
2019-05-29T11:08:38.927Z,17.15
2019-05-29T11:09:44.309Z,17.06
2019-05-29T11:10:38.755Z,17.03
2019-05-29T11:11:38.872Z,16.96
2019-05-29T11:12:39.747Z,16.99
2019-05-29T11:13:38.780Z,16.95
2019-05-29T11:14:38.807Z,17.17
2019-05-29T11:17:19.359Z,17.20
2019-05-29T11:18:19.466Z,17.23
2019-05-29T11:19:19.109Z,17.22
2019-05-29T11:20:19.146Z,17.25
2019-05-29T11:21:19.156Z,17.32
2019-05-29T11:22:26.201Z,17.33
2019-05-29T11:23:19.109Z,17.15
2019-05-29T11:24:19.057Z,17.30
2019-05-29T11:25:24.889Z,17.41
2019-05-29T11:26:19.036Z,17.40
2019-05-29T11:27:19.346Z,17.32
2019-05-29T11:28:19.101Z,17.51
2019-05-29T11:29:19.062Z,17.36
2019-05-29T11:30:19.150Z,17.47
2019-05-29T11:31:19.089Z,17.57
2019-05-29T11:32:19.095Z,17.59
2019-05-29T11:33:19.054Z,17.62
2019-05-29T11:34:19.107Z,17.55
2019-05-29T11:35:19.102Z,17.55
2019-05-29T11:36:19.078Z,17.63
2019-05-29T11:37:19.103Z,17.62
2019-05-29T11:38:19.139Z,17.63
2019-05-29T11:39:19.099Z,17.78
2019-05-29T11:40:19.125Z,17.66
2019-05-29T11:41:26.400Z,17.69
2019-05-29T11:42:27.684Z,17.59
2019-05-29T11:43:19.073Z,17.74
2019-05-29T11:44:19.078Z,17.71
2019-05-29T11:45:19.185Z,17.73
2019-05-29T11:46:19.073Z,17.64
2019-05-29T11:47:19.076Z,17.48
2019-05-29T11:48:19.054Z,17.54
2019-05-29T11:49:19.063Z,17.63
2019-05-29T11:50:20.029Z,17.76
2019-05-29T11:51:19.078Z,17.71
2019-05-29T11:52:24.874Z,17.78
2019-05-29T11:53:19.062Z,17.84
2019-05-29T11:54:19.081Z,17.95
2019-05-29T11:55:19.065Z,17.99
2019-05-29T11:56:19.062Z,18.02
2019-05-29T11:57:19.055Z,17.73
2019-05-29T11:58:30.586Z,17.74
2019-05-29T11:59:19.066Z,17.76
2019-05-29T12:00:20.950Z,17.74
2019-05-29T12:01:19.082Z,17.78
2019-05-29T12:02:19.067Z,17.84
2019-05-29T12:03:19.079Z,17.79
2019-05-29T12:04:26.242Z,17.81
2019-05-29T12:05:19.084Z,17.76
2019-05-29T12:06:19.117Z,17.70
2019-05-29T12:07:19.101Z,17.81
2019-05-29T12:08:19.102Z,17.81
2019-05-29T12:09:32.154Z,17.88
2019-05-29T12:10:19.150Z,17.82
2019-05-29T12:11:19.158Z,17.84
2019-05-29T12:12:19.071Z,17.73
2019-05-29T12:13:19.145Z,17.73
2019-05-29T12:14:19.136Z,17.78
2019-05-29T12:15:19.110Z,17.81
2019-05-29T12:16:19.165Z,17.84
2019-05-29T12:17:19.156Z,17.73
2019-05-29T12:18:24.027Z,17.85
2019-05-29T12:19:19.182Z,17.82
2019-05-29T12:20:31.391Z,17.79
2019-05-29T12:21:19.203Z,17.92
2019-05-29T12:22:19.166Z,18.04
2019-05-29T12:23:26.267Z,18.06
2019-05-29T12:24:19.149Z,18.15
2019-05-29T12:25:19.105Z,18.24
2019-05-29T12:26:22.675Z,18.25
2019-05-29T12:27:19.079Z,18.33
2019-05-29T12:28:19.109Z,18.25
2019-05-29T12:29:19.136Z,18.09
2019-05-29T12:30:19.121Z,18.21
2019-05-29T12:31:19.161Z,18.37
2019-05-29T12:32:19.187Z,18.40
2019-05-29T12:33:19.104Z,18.37
2019-05-29T12:34:27.995Z,18.39
2019-05-29T12:36:23.842Z,18.31
2019-05-29T12:37:23.648Z,18.47
2019-05-29T12:39:39.234Z,18.55
2019-05-29T12:40:28.384Z,18.58
2019-05-29T12:41:28.208Z,18.44
2019-05-29T12:42:28.259Z,18.47
2019-05-29T12:43:28.440Z,18.49
2019-05-29T12:44:28.158Z,18.52
2019-05-29T12:45:28.208Z,18.50
2019-05-29T12:46:28.161Z,18.52
2019-05-29T12:47:28.251Z,18.59
2019-05-29T12:48:28.222Z,18.57
2019-05-29T12:49:28.180Z,18.54
2019-05-29T12:50:28.220Z,18.52
2019-05-29T12:51:28.247Z,18.49
2019-05-29T12:52:28.238Z,18.58
2019-05-29T12:53:30.766Z,18.58
2019-05-29T12:54:28.163Z,18.54
2019-05-29T12:55:28.159Z,18.44
2019-05-29T12:56:28.205Z,18.42
2019-05-29T12:57:28.194Z,18.43
2019-05-29T12:58:28.384Z,18.50
2019-05-29T12:59:28.186Z,18.49
2019-05-29T13:00:28.212Z,18.46
2019-05-29T13:01:28.207Z,18.42
2019-05-29T13:02:28.207Z,18.43
2019-05-29T13:03:28.255Z,18.37
2019-05-29T13:04:28.285Z,18.39
2019-05-29T13:05:28.271Z,18.40
2019-05-29T13:06:28.231Z,18.37
2019-05-29T13:07:29.046Z,18.31
2019-05-29T13:08:28.298Z,18.24
2019-05-29T13:09:28.226Z,18.28
2019-05-29T13:10:30.893Z,18.21
2019-05-29T13:11:28.247Z,18.06
2019-05-29T13:12:28.187Z,17.95
2019-05-29T13:13:28.277Z,17.62
2019-05-29T13:14:28.207Z,17.54
2019-05-29T13:15:28.257Z,17.33
2019-05-29T13:16:28.354Z,17.20
2019-05-29T13:17:28.203Z,17.13
2019-05-29T13:18:28.184Z,17.03
2019-05-29T13:19:28.244Z,17.15
2019-05-29T13:20:28.208Z,17.26
2019-05-29T13:21:28.242Z,17.07
2019-05-29T13:22:28.348Z,16.99
2019-05-29T13:23:28.287Z,16.92
2019-05-29T13:24:28.204Z,16.98
2019-05-29T13:25:28.225Z,16.96
2019-05-29T13:26:28.255Z,16.81
2019-05-29T13:27:28.192Z,16.96
2019-05-29T13:28:28.249Z,17.04
2019-05-29T13:29:28.197Z,17.00
2019-05-29T13:30:28.181Z,17.13
2019-05-29T13:31:28.250Z,17.06
2019-05-29T13:32:28.205Z,17.03
2019-05-29T13:33:28.262Z,17.06
2019-05-29T13:34:28.227Z,16.96
2019-05-29T13:35:28.197Z,17.14
2019-05-29T13:36:28.200Z,17.23
2019-05-29T13:37:28.170Z,17.23
2019-05-29T13:38:28.170Z,17.23
2019-05-29T13:41:12.393Z,17.26
2019-05-29T13:42:08.817Z,17.23
2019-05-29T13:43:11.395Z,17.15
2019-05-29T13:44:02.796Z,17.25
2019-05-29T13:45:13.448Z,17.25
2019-05-29T13:46:02.648Z,17.22
2019-05-29T13:47:03.909Z,17.17
2019-05-29T13:48:03.212Z,17.14
2019-05-29T13:49:02.824Z,17.18